Time;durP1;ratioP1;P1;durP2;ratioP2;P2;SDS_P1;SDS_P2;PMS_P1;PMS_P2;Temp;Humidity;BMP_temperature;BMP_pressure;BME280_temperature;BME280_humidity;BME280_pressure;Samples;Min_cycle;Max_cycle;Signal;HPM_P1;HPM_P2
2022/01/05 00:00:54;;;;;;;27.65;10.75;;;;;;;-4.73;61.94;98732.47;6080735;23;20018;-81
2022/01/05 00:03:20;;;;;;;25.55;10.23;;;;;;;-4.61;61.80;98710.06;6075633;23;20023;-82
2022/01/05 00:05:46;;;;;;;26.23;10.10;;;;;;;-4.56;62.03;98728.84;6097913;23;20102;-80
2022/01/05 00:08:14;;;;;;;25.13;9.90;;;;;;;-4.85;62.50;98659.28;6070505;23;20022;-83
2022/01/05 00:10:40;;;;;;;24.92;10.93;;;;;;;-4.32;62.19;98732.16;6071309;23;20072;-81
2022/01/05 00:13:06;;;;;;;25.20;10.45;;;;;;;-4.52;61.50;98668.88;6096065;23;20440;-82
2022/01/05 00:15:32;;;;;;;24.70;9.98;;;;;;;-4.73;61.00;98686.75;6072230;23;20022;-79
2022/01/05 00:17:58;;;;;;;29.13;11.02;;;;;;;-4.58;61.67;98704.19;6073275;23;20044;-82
2022/01/05 00:20:24;;;;;;;26.23;11.50;;;;;;;-4.37;61.79;98732.00;6049336;23;20511;-81
2022/01/05 00:22:50;;;;;;;27.65;11.10;;;;;;;-4.36;61.59;98725.25;6070828;23;20029;-81
2022/01/05 00:25:17;;;;;;;26.88;10.73;;;;;;;-5.03;61.29;98603.69;6048875;23;20015;-81
2022/01/05 00:27:42;;;;;;;26.83;9.98;;;;;;;-5.33;61.13;98609.41;6072312;23;20046;-81
2022/01/05 00:30:09;;;;;;;23.80;10.13;;;;;;;-4.79;61.41;98701.81;6097162;23;20018;-80
2022/01/05 00:32:35;;;;;;;25.33;10.15;;;;;;;-5.35;61.58;98611.91;6072507;23;20022;-80
2022/01/05 00:35:01;;;;;;;22.00;10.23;;;;;;;-5.02;61.76;98646.03;6095301;23;20041;-81
2022/01/05 00:37:26;;;;;;;23.10;8.88;;;;;;;-4.60;60.83;98757.47;6072418;23;20018;-81
2022/01/05 00:39:52;;;;;;;25.75;10.32;;;;;;;-4.60;61.41;98733.75;6071470;23;20065;-80
2022/01/05 00:42:18;;;;;;;27.60;9.98;;;;;;;-4.61;61.38;98726.94;6095928;23;20025;-79
2022/01/05 00:44:44;;;;;;;27.60;11.25;;;;;;;-4.78;61.29;98708.59;6096168;23;20480;-80
2022/01/05 00:47:09;;;;;;;31.90;12.82;;;;;;;-4.99;61.65;98667.28;6042920;23;20421;-79
2022/01/05 00:49:36;;;;;;;30.35;12.48;;;;;;;-4.77;61.80;98698.50;6042582;23;20384;-81
2022/01/05 00:52:03;;;;;;;25.25;10.45;;;;;;;-4.96;61.05;98670.75;6069999;23;20045;-80
2022/01/05 00:54:29;;;;;;;20.20;9.65;;;;;;;-4.77;61.11;98726.41;6068678;23;20019;-78
2022/01/05 00:56:54;;;;;;;30.90;10.50;;;;;;;-4.84;61.00;98721.91;6067533;23;20070;-81
2022/01/05 00:59:20;;;;;;;29.88;12.07;;;;;;;-4.70;62.31;98720.75;6067727;23;20545;-80
2022/01/05 01:01:46;;;;;;;36.40;13.38;;;;;;;-4.72;62.51;98706.25;6094323;23;20109;-79
2022/01/05 01:04:12;;;;;;;39.10;14.90;;;;;;;-4.70;61.06;98708.06;6081195;23;20015;-79
2022/01/05 01:06:38;;;;;;;41.88;16.00;;;;;;;-4.94;62.11;98680.13;6084263;23;20023;-79
2022/01/05 01:09:03;;;;;;;47.53;18.15;;;;;;;-4.74;62.40;98700.25;6028792;23;20026;-79
2022/01/05 01:11:29;;;;;;;28.77;11.52;;;;;;;-4.69;61.19;98696.22;6073674;23;20058;-82
2022/01/05 01:13:55;;;;;;;31.40;11.23;;;;;;;-4.54;61.75;98706.03;6048501;23;20123;-79
2022/01/05 01:16:21;;;;;;;33.92;12.18;;;;;;;-4.52;62.01;98694.25;6073361;23;20019;-79
2022/01/05 01:18:47;;;;;;;30.75;12.07;;;;;;;-4.78;62.02;98652.75;6092369;23;20022;-79
2022/01/05 01:21:13;;;;;;;27.73;11.82;;;;;;;-4.66;62.21;98683.63;6070608;23;20409;-80
2022/01/05 01:23:48;;;;;;;31.15;11.60;;;;;;;-4.59;61.96;98694.84;6068110;23;20477;-79
2022/01/05 01:26:14;;;;;;;30.65;11.52;;;;;;;-4.63;61.69;98682.88;6068515;23;20342;-80
2022/01/05 01:28:40;;;;;;;30.40;11.75;;;;;;;-4.77;62.21;98646.88;6067140;23;20030;-80
2022/01/05 01:31:06;;;;;;;27.50;11.32;;;;;;;-4.81;62.40;98640.81;6068660;23;20022;-81
2022/01/05 01:33:32;;;;;;;39.20;12.00;;;;;;;-4.59;61.64;98677.97;6067648;23;20067;-81
2022/01/05 01:35:58;;;;;;;28.23;11.70;;;;;;;-4.72;62.28;98630.97;6092508;23;20106;-80
2022/01/05 01:38:24;;;;;;;27.90;11.65;;;;;;;-4.31;62.50;98690.69;6069798;23;20015;-79
2022/01/05 01:40:50;;;;;;;31.23;12.13;;;;;;;-4.59;62.19;98639.88;6068713;23;20025;-80
2022/01/05 01:43:16;;;;;;;26.35;10.90;;;;;;;-4.24;61.94;98670.63;6068174;23;20098;-80
2022/01/05 01:45:42;;;;;;;30.30;11.30;;;;;;;-4.27;62.34;98642.56;6092675;23;20130;-80
2022/01/05 01:48:08;;;;;;;33.10;12.55;;;;;;;-4.02;62.76;98666.22;6073022;23;20022;-82
2022/01/05 01:50:35;;;;;;;29.23;11.90;;;;;;;-4.52;61.54;98596.91;6074161;23;20018;-80
2022/01/05 01:53:01;;;;;;;27.88;12.60;;;;;;;-4.22;61.84;98647.81;6099328;23;20025;-80
2022/01/05 01:55:28;;;;;;;32.42;12.18;;;;;;;-4.49;61.94;98607.13;6072744;23;20018;-79
2022/01/05 01:57:55;;;;;;;29.55;10.82;;;;;;;-4.55;60.63;98634.09;6082224;23;20452;-80
2022/01/05 02:00:21;;;;;;;31.35;11.93;;;;;;;-4.64;62.19;98617.69;6084511;23;20026;-83
2022/01/05 02:02:47;;;;;;;33.30;12.35;;;;;;;-4.55;62.06;98623.03;6108105;23;20025;-81
2022/01/05 02:05:13;;;;;;;30.58;12.52;;;;;;;-4.42;62.12;98640.44;6111243;23;20018;-82
2022/01/05 02:07:40;;;;;;;31.02;11.93;;;;;;;-4.28;62.62;98640.84;6085743;23;20015;-80
2022/01/05 02:10:08;;;;;;;31.95;10.73;;;;;;;-4.28;61.78;98625.59;6084044;23;20018;-79
2022/01/05 02:12:33;;;;;;;27.52;11.25;;;;;;;-4.48;62.47;98601.25;6086391;23;20023;-80
2022/01/05 02:14:59;;;;;;;31.35;12.15;;;;;;;-5.05;62.00;98540.19;6099365;23;20018;-81
2022/01/05 02:17:49;;;;;;;32.78;12.13;;;;;;;-4.46;62.79;98603.03;6071456;23;20026;-80
2022/01/05 02:20:19;;;;;;;34.38;12.73;;;;;;;-4.10;62.47;98630.41;6088341;23;20022;-81
2022/01/05 02:22:46;;;;;;;29.85;12.18;;;;;;;-4.26;62.07;98601.09;6089442;23;20049;-82
2022/01/05 02:25:12;;;;;;;28.88;12.88;;;;;;;-4.48;61.47;98583.47;6097682;23;20021;-82
2022/01/05 02:27:43;;;;;;;36.67;12.75;;;;;;;-4.36;61.84;98608.38;6098443;23;20006;-83
2022/01/05 02:30:11;;;;;;;31.45;12.32;;;;;;;-4.34;62.54;98568.66;6097899;23;20065;-83
2022/01/05 02:32:37;;;;;;;33.97;11.68;;;;;;;-4.85;61.24;98487.56;6073578;23;20030;-81
2022/01/05 02:35:04;;;;;;;33.63;12.25;;;;;;;-4.61;61.99;98527.22;6097836;23;20037;-81
2022/01/05 02:37:30;;;;;;;34.15;13.50;;;;;;;-4.27;61.99;98589.22;6097935;23;20021;-82
2022/01/05 02:39:56;;;;;;;29.55;12.65;;;;;;;-4.25;61.81;98610.47;6060231;23;20041;-82
2022/01/05 02:42:29;;;;;;;32.58;12.60;;;;;;;-4.39;62.20;98586.31;6047928;23;20121;-80
2022/01/05 02:44:57;;;;;;;27.27;11.43;;;;;;;-4.48;61.47;98606.31;6073192;23;20400;-80
2022/01/05 02:47:22;;;;;;;33.58;12.93;;;;;;;-4.67;61.96;98587.09;6078518;23;20082;-81
2022/01/05 02:49:48;;;;;;;32.83;12.40;;;;;;;-4.78;62.59;98584.22;6068025;23;20006;-82
2022/01/05 02:52:15;;;;;;;29.75;11.38;;;;;;;-4.72;62.83;98589.47;6079978;23;20105;-81
2022/01/05 02:54:44;;;;;;;30.33;12.18;;;;;;;-4.51;62.92;98612.19;6071988;23;20018;-80
2022/01/05 02:57:10;;;;;;;28.10;12.77;;;;;;;-4.47;62.17;98613.13;6068547;23;20022;-80
2022/01/05 02:59:37;;;;;;;32.58;12.27;;;;;;;-4.84;62.46;98565.44;6043692;23;20014;-81
2022/01/05 03:02:03;;;;;;;31.83;12.48;;;;;;;-4.55;62.86;98607.81;6067294;23;20018;-80
2022/01/05 03:04:28;;;;;;;24.85;10.30;;;;;;;-4.72;62.20;98559.88;6068381;23;20315;-81
2022/01/05 03:06:54;;;;;;;36.03;12.82;;;;;;;-4.46;63.14;98586.91;6066106;23;20034;-83
2022/01/05 03:09:20;;;;;;;26.10;9.65;;;;;;;-4.62;62.07;98563.59;6067936;23;20033;-83
2022/01/05 03:11:46;;;;;;;31.65;11.23;;;;;;;-4.97;62.50;98512.56;6067499;23;20022;-82
2022/01/05 03:14:12;;;;;;;33.10;11.80;;;;;;;-4.44;62.99;98590.38;6029352;23;20034;-82
2022/01/05 03:16:37;;;;;;;27.65;11.43;;;;;;;-4.39;62.77;98593.94;6077372;23;20022;-82
2022/01/05 03:19:03;;;;;;;24.55;10.38;;;;;;;-5.19;61.77;98466.19;6067377;23;20034;-83
2022/01/05 03:21:29;;;;;;;29.23;12.13;;;;;;;-4.88;62.65;98523.00;6069086;23;20469;-85
2022/01/05 03:23:55;;;;;;;24.45;9.98;;;;;;;-5.02;62.53;98506.47;6031142;23;20029;-83
2022/01/05 03:26:21;;;;;;;24.90;10.20;;;;;;;-4.63;62.08;98572.00;6115563;23;20023;-81
2022/01/05 03:28:46;;;;;;;27.33;9.00;;;;;;;-4.96;62.01;98513.41;6085105;23;20049;-83
2022/01/05 03:31:12;;;;;;;26.15;10.98;;;;;;;-4.74;62.30;98573.31;6067159;23;20002;-82
2022/01/05 03:33:38;;;;;;;24.83;9.35;;;;;;;-5.22;62.78;98505.78;6066345;23;19999;-83
2022/01/05 03:36:04;;;;;;;31.70;12.43;;;;;;;-4.94;63.16;98550.69;6044037;23;20053;-83
2022/01/05 03:38:30;;;;;;;27.60;11.15;;;;;;;-4.64;63.17;98557.59;6046249;23;20023;-83
2022/01/05 03:40:57;;;;;;;32.47;10.98;;;;;;;-4.63;62.74;98559.31;6043339;23;20014;-83
2022/01/05 03:43:23;;;;;;;30.58;11.25;;;;;;;-4.73;63.38;98552.22;6067293;23;20138;-84
2022/01/05 03:45:50;;;;;;;20.42;9.18;;;;;;;-4.59;62.23;98568.75;6088988;23;20026;-80
2022/01/05 03:48:21;;;;;;;27.88;10.45;;;;;;;-4.87;62.26;98534.88;6091979;23;20077;-83
2022/01/05 03:50:50;;;;;;;27.63;11.10;;;;;;;-5.07;62.99;98501.22;6070568;23;20018;-82
2022/01/05 03:53:19;;;;;;;32.13;12.07;;;;;;;-5.29;63.67;98464.16;6048811;23;20366;-82
2022/01/05 03:55:47;;;;;;;25.27;10.13;;;;;;;-5.25;62.49;98491.34;6048437;23;20023;-81
2022/01/05 03:58:14;;;;;;;30.73;12.00;;;;;;;-4.81;63.17;98553.66;6098975;23;20045;-82
2022/01/05 04:00:43;;;;;;;30.60;11.27;;;;;;;-5.05;63.51;98486.91;6076860;23;20018;-82
2022/01/05 04:03:09;;;;;;;27.25;10.65;;;;;;;-4.98;63.00;98495.59;6055527;23;20526;-82
2022/01/05 04:05:35;;;;;;;29.23;11.35;;;;;;;-4.81;62.86;98539.28;6073127;23;20014;-82
2022/01/05 04:08:01;;;;;;;29.60;10.40;;;;;;;-4.91;62.87;98527.13;6049724;23;20455;-82
2022/01/05 04:10:28;;;;;;;33.78;11.90;;;;;;;-5.02;63.50;98509.84;6075301;23;20033;-81
2022/01/05 04:12:54;;;;;;;26.85;10.20;;;;;;;-4.95;62.87;98502.44;6102167;23;20418;-82
2022/01/05 04:15:20;;;;;;;27.15;9.65;;;;;;;-4.73;62.98;98563.25;6078575;23;20014;-83
2022/01/05 04:17:46;;;;;;;21.90;10.43;;;;;;;-5.36;63.35;98412.38;6076060;23;20074;-81
2022/01/05 04:20:13;;;;;;;28.77;11.32;;;;;;;-5.33;63.57;98420.09;6054323;23;20093;-84
2022/01/05 04:22:39;;;;;;;24.67;8.85;;;;;;;-4.84;62.71;98496.91;6099168;23;20018;-80
2022/01/05 04:25:06;;;;;;;26.60;9.60;;;;;;;-5.31;62.88;98420.13;6050409;23;20023;-84
2022/01/05 04:27:32;;;;;;;25.92;10.20;;;;;;;-4.59;63.18;98528.13;6072173;23;20113;-82
2022/01/05 04:29:58;;;;;;;30.13;10.50;;;;;;;-5.24;63.48;98406.84;6049821;23;20105;-84
2022/01/05 04:32:23;;;;;;;27.05;10.40;;;;;;;-5.02;63.15;98438.81;6101082;23;20018;-82
2022/01/05 04:34:49;;;;;;;25.25;11.13;;;;;;;-4.37;63.57;98526.25;6113226;23;20069;-82
2022/01/05 04:37:15;;;;;;;25.38;9.90;;;;;;;-4.49;63.29;98485.22;6066066;23;20023;-86
2022/01/05 04:39:41;;;;;;;28.48;9.88;;;;;;;-4.31;63.25;98501.06;6072477;23;20070;-82
2022/01/05 04:42:08;;;;;;;26.92;9.85;;;;;;;-4.33;61.96;98510.31;6076986;23;20018;-82
2022/01/05 04:44:34;;;;;;;25.35;9.43;;;;;;;-4.36;62.58;98512.75;6071948;23;20014;-78
2022/01/05 04:47:00;;;;;;;24.13;9.80;;;;;;;-4.76;62.85;98466.66;6048146;23;20045;-82
2022/01/05 04:49:26;;;;;;;23.23;9.20;;;;;;;-4.92;61.81;98480.56;6073499;23;20018;-80
2022/01/05 04:51:52;;;;;;;24.80;9.65;;;;;;;-4.60;62.65;98510.31;6097285;23;20460;-79
2022/01/05 04:54:18;;;;;;;29.30;10.30;;;;;;;-4.63;62.97;98513.63;6047389;23;20014;-79
2022/01/05 04:56:44;;;;;;;24.35;9.15;;;;;;;-4.75;62.97;98491.25;6071233;23;20093;-80
2022/01/05 04:59:10;;;;;;;25.63;9.70;;;;;;;-4.87;62.93;98468.88;6095767;23;20220;-80
2022/01/05 05:01:35;;;;;;;27.55;9.98;;;;;;;-4.63;63.36;98483.16;6095475;23;20019;-81
2022/01/05 05:04:02;;;;;;;25.25;9.90;;;;;;;-4.66;63.07;98450.03;6095313;23;20356;-80
2022/01/05 05:06:28;;;;;;;23.00;10.20;;;;;;;-4.15;63.21;98514.19;6073236;23;20029;-79
2022/01/05 05:08:54;;;;;;;21.67;8.80;;;;;;;-4.54;62.74;98462.25;6099822;23;20018;-82
2022/01/05 05:11:20;;;;;;;21.00;9.48;;;;;;;-4.44;62.37;98501.47;6050488;23;20014;-80
2022/01/05 05:13:45;;;;;;;22.35;9.15;;;;;;;-4.61;62.17;98476.44;6073100;23;20011;-79
2022/01/05 05:16:11;;;;;;;20.17;8.07;;;;;;;-4.78;62.00;98472.53;6096960;23;20110;-82
2022/01/05 05:18:37;;;;;;;18.92;7.72;;;;;;;-4.96;62.16;98457.56;6072673;23;20089;-81
2022/01/05 05:21:03;;;;;;;22.38;8.23;;;;;;;-5.02;63.04;98458.25;6024644;23;20110;-81
2022/01/05 05:23:29;;;;;;;26.15;9.43;;;;;;;-5.14;62.97;98406.28;6053712;23;20021;-79
2022/01/05 05:25:56;;;;;;;19.90;8.45;;;;;;;-4.70;63.62;98469.41;6075877;23;20457;-78
2022/01/05 05:28:22;;;;;;;20.20;8.73;;;;;;;-4.54;62.66;98485.09;6050738;23;20018;-80
2022/01/05 05:30:48;;;;;;;23.20;8.68;;;;;;;-4.47;63.04;98487.03;6076655;23;20018;-82
2022/01/05 05:33:14;;;;;;;17.38;7.55;;;;;;;-4.74;62.12;98446.41;6097727;23;20018;-81
2022/01/05 05:35:41;;;;;;;20.05;8.65;;;;;;;-4.64;62.94;98478.88;6098242;23;20010;-81
2022/01/05 05:38:09;;;;;;;25.88;9.23;;;;;;;-4.89;62.89;98434.13;6072796;23;20022;-80
2022/01/05 05:40:34;;;;;;;15.00;5.82;;;;;;;-5.07;61.88;98425.09;6098056;23;20022;-80
2022/01/05 05:43:01;;;;;;;17.48;6.47;;;;;;;-5.06;62.69;98433.59;6100385;23;20021;-80
2022/01/05 05:45:28;;;;;;;19.98;8.00;;;;;;;-5.02;63.07;98443.88;6109434;23;20023;-82
2022/01/05 05:47:54;;;;;;;21.90;8.85;;;;;;;-5.50;63.59;98329.91;6065914;23;20033;-82
2022/01/05 05:50:20;;;;;;;23.48;8.18;;;;;;;-4.79;63.36;98422.56;6074008;23;20018;-83
2022/01/05 05:52:46;;;;;;;18.38;8.23;;;;;;;-4.80;63.05;98395.47;6075298;23;20029;-81
2022/01/05 05:55:12;;;;;;;18.27;7.93;;;;;;;-4.54;63.57;98436.84;6098653;23;20010;-81
2022/01/05 05:57:37;;;;;;;20.58;8.73;;;;;;;-4.82;62.83;98397.94;6073539;23;20042;-83
2022/01/05 06:00:06;;;;;;;23.83;9.20;;;;;;;-4.68;63.16;98413.59;6073734;23;20046;-81
2022/01/05 06:02:32;;;;;;;19.23;8.80;;;;;;;-4.63;62.68;98431.53;6100500;23;20026;-82
2022/01/05 06:04:58;;;;;;;22.25;9.02;;;;;;;-4.68;63.10;98431.34;6074739;23;20487;-82
2022/01/05 06:07:23;;;;;;;18.52;7.78;;;;;;;-5.08;62.35;98370.13;6075573;23;20022;-83
2022/01/05 06:09:49;;;;;;;20.73;8.23;;;;;;;-4.86;62.95;98431.69;6051407;23;20022;-85
2022/01/05 06:12:15;;;;;;;24.08;9.02;;;;;;;-5.10;63.19;98381.03;6073410;23;20029;-79
2022/01/05 06:14:41;;;;;;;20.63;8.07;;;;;;;-4.83;62.88;98408.91;6073859;23;20040;-79
2022/01/05 06:17:06;;;;;;;15.25;6.65;;;;;;;-5.10;62.32;98391.16;6100657;23;20018;-84
2022/01/05 06:19:32;;;;;;;18.10;7.40;;;;;;;-5.31;62.45;98384.59;6051937;23;20018;-81
2022/01/05 06:21:58;;;;;;;16.13;7.47;;;;;;;-5.05;62.66;98425.16;6072950;23;20101;-81
2022/01/05 06:24:25;;;;;;;18.05;8.05;;;;;;;-4.95;63.74;98411.09;6072214;23;20022;-79
2022/01/05 06:26:52;;;;;;;17.13;7.20;;;;;;;-4.62;63.65;98436.63;6050071;23;20026;-80
2022/01/05 06:29:20;;;;;;;21.92;8.50;;;;;;;-4.72;63.73;98387.25;6076481;23;20018;-80
2022/01/05 06:31:46;;;;;;;16.55;7.47;;;;;;;-5.16;62.47;98316.59;6077162;23;20333;-80
2022/01/05 06:34:12;;;;;;;18.60;7.07;;;;;;;-5.29;62.29;98302.66;6102775;23;20014;-84
2022/01/05 06:36:38;;;;;;;18.77;8.82;;;;;;;-4.49;63.23;98425.16;6076825;23;20014;-79
2022/01/05 06:39:04;;;;;;;19.95;8.60;;;;;;;-4.49;62.31;98402.31;6100632;23;20019;-80
2022/01/05 06:41:31;;;;;;;18.00;7.88;;;;;;;-4.68;63.13;98385.66;6101575;23;20063;-80
2022/01/05 06:43:56;;;;;;;19.50;7.53;;;;;;;-4.53;63.01;98395.41;6077282;23;20022;-80
2022/01/05 06:46:22;;;;;;;23.30;8.05;;;;;;;-4.29;63.46;98433.34;6102092;23;20101;-80
2022/01/05 06:48:48;;;;;;;18.02;7.85;;;;;;;-4.41;63.35;98394.91;6078628;23;20069;-80
2022/01/05 06:51:14;;;;;;;19.58;8.05;;;;;;;-4.55;62.77;98364.03;6076592;23;20021;-80
2022/01/05 06:53:41;;;;;;;17.23;8.40;;;;;;;-4.29;62.98;98394.38;6081478;23;20014;-79
2022/01/05 06:56:07;;;;;;;14.90;6.70;;;;;;;-4.31;61.60;98412.13;6118978;23;20014;-78
2022/01/05 06:58:34;;;;;;;16.02;7.47;;;;;;;-4.55;61.34;98410.63;6064766;23;20029;-81
2022/01/05 07:01:00;;;;;;;17.27;7.78;;;;;;;-4.64;62.95;98397.63;6060806;23;20022;-79
2022/01/05 07:03:25;;;;;;;19.58;8.32;;;;;;;-4.73;62.37;98394.81;6053327;23;20028;-82
2022/01/05 07:05:51;;;;;;;19.40;8.05;;;;;;;-4.65;63.79;98378.13;6075484;23;20022;-82
2022/01/05 07:08:18;;;;;;;20.92;8.02;;;;;;;-4.34;63.09;98406.97;6050701;23;20040;-80
2022/01/05 07:10:47;;;;;;;22.95;8.52;;;;;;;-4.53;63.59;98357.31;6103752;23;20022;-81
2022/01/05 07:13:12;;;;;;;20.50;8.95;;;;;;;-4.45;63.05;98372.78;6030551;23;20015;-81
2022/01/05 07:15:38;;;;;;;22.67;8.20;;;;;;;-4.54;62.79;98386.94;6078704;23;20020;-81
2022/01/05 07:18:04;;;;;;;19.63;8.20;;;;;;;-4.67;62.51;98366.22;6080866;23;20397;-79
2022/01/05 07:20:30;;;;;;;20.25;8.65;;;;;;;-4.78;62.55;98365.91;6079706;23;20074;-80
2022/01/05 07:22:56;;;;;;;16.55;6.07;;;;;;;-5.20;62.65;98291.09;6038028;23;20018;-80
2022/01/05 07:25:22;;;;;;;23.88;8.35;;;;;;;-4.62;63.16;98387.50;6085350;23;20029;-79
2022/01/05 07:27:47;;;;;;;18.70;8.18;;;;;;;-4.51;63.69;98382.75;6112985;23;20029;-81
2022/01/05 07:30:13;;;;;;;16.70;7.78;;;;;;;-5.30;62.50;98229.09;6059953;23;20034;-79
2022/01/05 07:32:40;;;;;;;18.52;8.52;;;;;;;-5.02;63.72;98281.47;6079835;23;20022;-82
2022/01/05 07:35:07;;;;;;;22.58;9.15;;;;;;;-4.39;63.82;98370.41;6055655;23;20490;-80
2022/01/05 07:37:33;;;;;;;19.23;8.38;;;;;;;-4.87;63.31;98263.31;6103888;23;20018;-82
2022/01/05 07:39:59;;;;;;;20.38;9.00;;;;;;;-4.29;64.08;98319.03;6068592;23;20029;-82
2022/01/05 07:42:27;;;;;;;18.75;7.15;;;;;;;-4.19;62.46;98337.91;6095130;23;20022;-81
2022/01/05 07:44:57;;;;;;;17.90;7.47;;;;;;;-4.48;63.10;98291.41;6071822;23;20023;-79
2022/01/05 07:47:22;;;;;;;14.57;5.05;;;;;;;-4.51;62.24;98317.59;6119391;23;20026;-79
2022/01/05 07:49:48;;;;;;;15.27;6.63;;;;;;;-4.69;62.06;98350.94;6108348;23;20025;-79
2022/01/05 07:52:14;;;;;;;18.38;7.47;;;;;;;-4.87;63.36;98351.28;6105846;23;20038;-81
2022/01/05 07:54:40;;;;;;;17.23;8.15;;;;;;;-4.78;63.84;98330.38;6088331;23;20018;-80
2022/01/05 07:57:06;;;;;;;22.40;8.50;;;;;;;-5.17;63.45;98243.84;6114865;23;20018;-80
2022/01/05 07:59:31;;;;;;;19.33;6.85;;;;;;;-4.56;64.08;98309.84;6111881;23;20018;-81
2022/01/05 08:01:57;;;;;;;21.38;7.40;;;;;;;-4.73;63.16;98280.56;6108614;23;20066;-81
2022/01/05 08:04:26;;;;;;;12.88;5.32;;;;;;;-4.71;62.88;98271.34;6088858;23;20018;-82
2022/01/05 08:06:52;;;;;;;19.75;6.72;;;;;;;-4.55;63.43;98314.13;6119153;23;20049;-81
2022/01/05 08:09:18;;;;;;;15.45;6.50;;;;;;;-5.00;63.07;98254.47;6087053;23;20025;-81
2022/01/05 08:11:44;;;;;;;23.10;8.18;;;;;;;-4.83;64.36;98259.16;6053473;23;20022;-79
2022/01/05 08:14:10;;;;;;;20.35;8.32;;;;;;;-4.63;64.13;98263.94;6102627;23;20641;-84
2022/01/05 08:16:36;;;;;;;18.17;7.82;;;;;;;-4.80;63.69;98215.25;6100088;23;20154;-83
2022/01/05 08:19:02;;;;;;;16.50;6.38;;;;;;;-4.67;62.87;98277.38;6074010;23;20046;-81
2022/01/05 08:21:29;;;;;;;20.33;7.28;;;;;;;-4.70;64.48;98267.97;6100077;23;20049;-81
2022/01/05 08:23:55;;;;;;;18.25;7.80;;;;;;;-4.57;64.85;98259.03;6074136;23;20018;-84
2022/01/05 08:26:23;;;;;;;22.05;8.88;;;;;;;-4.21;65.08;98249.78;6098108;23;20033;-84
2022/01/05 08:28:48;;;;;;;16.25;7.32;;;;;;;-4.10;64.40;98231.44;6074820;23;20206;-81
2022/01/05 08:31:14;;;;;;;17.30;7.30;;;;;;;-4.01;64.55;98230.81;6099625;23;20025;-81
2022/01/05 08:33:40;;;;;;;15.45;7.03;;;;;;;-4.31;64.16;98191.13;6078067;23;20014;-81
2022/01/05 08:36:09;;;;;;;13.95;6.30;;;;;;;-4.93;63.96;98080.41;6088864;23;20036;-82
2022/01/05 08:38:37;;;;;;;18.42;6.28;;;;;;;-4.06;64.20;98214.56;6093947;23;20081;-83
2022/01/05 08:41:03;;;;;;;19.95;7.95;;;;;;;-4.07;63.50;98220.47;6116514;23;20007;-82
2022/01/05 08:43:34;;;;;;;16.38;6.90;;;;;;;-4.14;64.49;98200.84;6118394;23;20032;-81
2022/01/05 08:46:03;;;;;;;12.20;5.97;;;;;;;-4.18;63.57;98168.56;6094217;23;20002;-81
2022/01/05 08:48:30;;;;;;;13.43;5.45;;;;;;;-5.36;62.98;98005.75;6118301;23;20318;-81
2022/01/05 08:51:03;;;;;;;12.65;5.38;;;;;;;-5.76;63.68;97959.97;6094375;23;20030;-81
2022/01/05 08:53:38;;;;;;;15.95;6.85;;;;;;;-4.71;64.36;98134.25;6087320;23;20018;-84
2022/01/05 08:56:04;;;;;;;16.83;6.57;;;;;;;-5.19;64.71;98012.13;6119915;23;20428;-81
2022/01/05 08:58:30;;;;;;;20.85;7.15;;;;;;;-5.23;64.23;98035.69;6093204;23;20033;-81
2022/01/05 09:01:02;;;;;;;14.45;6.82;;;;;;;-4.88;64.78;98083.09;6112019;23;20018;-81
2022/01/05 09:03:29;;;;;;;11.38;4.88;;;;;;;-5.10;64.16;98044.50;6084411;23;20515;-82
2022/01/05 09:06:00;;;;;;;16.35;6.55;;;;;;;-4.82;63.53;98095.91;6088761;23;20014;-80
2022/01/05 09:08:26;;;;;;;10.80;4.97;;;;;;;-5.18;64.21;98031.56;6064709;23;20022;-80
2022/01/05 09:10:51;;;;;;;17.40;6.22;;;;;;;-4.50;65.15;98112.75;6058778;23;20112;-80
2022/01/05 09:13:17;;;;;;;16.83;5.90;;;;;;;-4.13;65.14;98147.50;6082055;23;20018;-81
2022/01/05 09:15:46;;;;;;;11.90;5.93;;;;;;;-4.11;64.50;98123.00;6111906;23;20025;-80
2022/01/05 09:18:15;;;;;;;17.70;7.63;;;;;;;-5.07;64.56;98015.78;6120005;23;20025;-81
2022/01/05 09:20:41;;;;;;;15.65;5.93;;;;;;;-4.40;64.23;98115.56;6086764;23;20049;-82
2022/01/05 09:23:07;;;;;;;29.92;13.27;;;;;;;-4.61;65.81;98060.06;6084563;23;20461;-82
2022/01/05 09:25:35;;;;;;;18.67;7.88;;;;;;;-4.74;64.60;98002.19;6106770;23;20027;-80
2022/01/05 09:28:02;;;;;;;29.00;10.95;;;;;;;-4.07;65.83;98100.22;6082028;23;20369;-82
2022/01/05 09:30:28;;;;;;;14.35;6.20;;;;;;;-4.91;64.94;97971.34;6032383;23;20023;-80
2022/01/05 09:33:04;;;;;;;17.25;6.57;;;;;;;-5.12;65.62;97913.34;6059756;23;20026;-81
2022/01/05 09:35:35;;;;;;;16.45;6.50;;;;;;;-4.56;65.11;97987.38;6057344;23;20014;-80
2022/01/05 09:43:19;;;;;;;20.70;8.23;;;;;;;-4.05;65.32;98040.13;6102520;23;20073;-79
2022/01/05 09:46:06;;;;;;;11.20;4.35;;;;;;;-4.18;64.55;98013.59;6100208;23;20074;-79
2022/01/05 09:48:52;;;;;;;19.38;7.95;;;;;;;-4.12;65.30;98024.72;6103359;23;20018;-79
2022/01/05 09:51:20;;;;;;;10.48;5.03;;;;;;;-4.33;64.57;97994.66;6101534;23;20460;-80
2022/01/05 09:53:48;;;;;;;22.52;8.55;;;;;;;-4.37;65.37;97987.78;6054199;23;20018;-80
2022/01/05 09:56:14;;;;;;;17.02;6.68;;;;;;;-4.41;64.92;97968.22;6077302;23;20369;-80
2022/01/05 09:58:46;;;;;;;17.17;7.97;;;;;;;-4.01;66.58;97991.06;6101781;23;20045;-77
2022/01/05 10:01:12;;;;;;;18.50;8.30;;;;;;;-3.79;65.80;97987.25;6075569;23;20088;-79
2022/01/05 10:03:39;;;;;;;17.85;8.57;;;;;;;-4.27;65.59;97908.41;6100192;23;20102;-80
2022/01/05 10:06:05;;;;;;;17.90;7.63;;;;;;;-4.16;64.82;97936.56;6109099;23;20111;-78
2022/01/05 10:08:48;;;;;;;20.02;8.57;;;;;;;-4.51;65.81;97867.28;6107720;23;20030;-86
2022/01/05 10:11:17;;;;;;;18.80;8.50;;;;;;;-4.90;64.88;97833.50;6062065;23;20034;-86
2022/01/05 10:13:55;;;;;;;17.85;8.18;;;;;;;-4.40;64.57;97937.78;6090744;23;20026;-88
2022/01/05 10:20:08;;;;;;;17.58;8.02;;;;;;;-5.11;66.11;97793.28;6063910;23;20388;-82
2022/01/05 10:22:46;;;;;;;20.05;8.52;;;;;;;-4.36;65.54;97920.06;6089957;23;20018;-82
2022/01/05 10:25:25;;;;;;;18.40;8.90;;;;;;;-4.54;65.79;97898.53;6062851;23;20018;-80
2022/01/05 10:31:20;;;;;;;20.88;8.88;;;;;;;-5.61;65.41;97798.13;6083611;23;20022;-80
2022/01/05 10:33:56;;;;;;;14.07;6.55;;;;;;;-5.90;65.26;97744.25;6080547;23;20070;-85
2022/01/05 10:36:23;;;;;;;21.95;8.95;;;;;;;-5.29;65.86;97820.81;6058553;23;20110;-86
2022/01/05 10:39:20;;;;;;;19.75;8.73;;;;;;;-5.30;66.43;97781.09;6110235;23;20030;-84
2022/01/05 10:41:49;;;;;;;11.77;4.95;;;;;;;-5.56;65.24;97744.16;6085279;23;20507;-84
2022/01/05 10:44:23;;;;;;;17.27;7.38;;;;;;;-6.22;65.92;97651.53;6085736;23;20025;-86
2022/01/05 10:46:54;;;;;;;18.08;8.38;;;;;;;-4.69;66.38;97886.38;6062485;23;20329;-82
2022/01/05 10:49:26;;;;;;;;;;;;;;;-4.61;65.99;97879.78;6109178;23;20500;-79
2022/01/05 10:51:53;;;;;;;20.80;9.02;;;;;;;-4.76;66.29;97875.25;6059941;23;19980;-81
2022/01/05 10:54:23;;;;;;;20.45;8.38;;;;;;;-5.34;66.17;97778.44;6053659;23;20021;-83
2022/01/05 10:56:49;;;;;;;20.60;8.55;;;;;;;-5.61;66.58;97751.63;6080038;23;20022;-83
2022/01/05 10:59:28;;;;;;;21.70;8.68;;;;;;;-5.56;66.82;97761.91;6032899;23;20018;-82
2022/01/05 11:01:55;;;;;;;19.45;8.15;;;;;;;-6.29;66.52;97628.56;6054801;23;20018;-85
2022/01/05 11:04:29;;;;;;;19.85;7.18;;;;;;;-4.94;66.64;97852.84;6054820;23;20053;-82
2022/01/05 11:07:03;;;;;;;14.45;6.45;;;;;;;-4.94;66.66;97832.56;6103626;23;20018;-81
2022/01/05 11:09:53;;;;;;;18.27;7.50;;;;;;;-5.49;66.38;97761.19;6079320;23;20030;-82
2022/01/05 11:12:19;;;;;;;21.88;8.32;;;;;;;-5.51;67.03;97785.66;6054383;23;20046;-82
2022/01/05 11:14:45;;;;;;;20.90;9.35;;;;;;;-5.39;67.31;97818.03;6076515;23;20021;-84
2022/01/05 11:17:16;;;;;;;28.67;11.68;;;;;;;-5.25;68.16;97809.09;6079778;23;20022;-80
2022/01/05 11:19:47;;;;;;;25.33;10.73;;;;;;;-5.72;67.77;97697.34;6107689;23;20018;-79
2022/01/05 11:22:15;;;;;;;23.25;9.65;;;;;;;-4.96;67.85;97792.78;6052336;23;20412;-82
2022/01/05 11:24:41;;;;;;;19.80;8.98;;;;;;;-5.06;66.92;97794.25;6101494;23;20032;-80
2022/01/05 11:27:10;;;;;;;14.77;5.68;;;;;;;-5.07;66.82;97800.16;6027026;23;20050;-81
2022/01/05 11:29:39;;;;;;;25.63;10.95;;;;;;;-5.25;67.57;97801.47;6102093;23;20483;-82
2022/01/05 11:32:12;;;;;;;22.10;8.82;;;;;;;-5.84;67.03;97703.81;6080474;23;20022;-82
2022/01/05 11:34:38;;;;;;;27.25;10.50;;;;;;;-5.47;68.17;97773.09;6055849;23;20018;-81